createdAt,value
2023-03-21T00:00:47.704Z,17740.3848
2023-03-21T00:01:49.160Z,17742.8457
2023-03-21T00:02:50.663Z,17738.5391
2023-03-21T00:03:52.096Z,17736.1543
2023-03-21T00:04:55.094Z,17733.0762
2023-03-21T00:05:54.943Z,17735.3086
2023-03-21T00:06:56.330Z,17732.5391
2023-03-21T00:07:57.793Z,17729.8457
2023-03-21T00:08:59.211Z,17735.1543
2023-03-21T00:10:12.385Z,17729.2305
2023-03-21T00:11:02.098Z,17730.6914
2023-03-21T00:12:03.521Z,17732.2305
2023-03-21T00:13:04.962Z,17731.3848
2023-03-21T00:14:06.403Z,17732.5391
2023-03-21T00:15:07.835Z,17732.1543
2023-03-21T00:16:20.469Z,17733.0762
2023-03-21T00:17:10.710Z,17732.3848
2023-03-21T00:18:12.160Z,17731.9238
2023-03-21T00:19:13.584Z,17735.3086
2023-03-21T00:20:15.092Z,17731.6152
2023-03-21T00:21:40.687Z,17734.0762
2023-03-21T00:22:17.905Z,17736.3086
2023-03-21T00:23:19.337Z,17734.0762
2023-03-21T00:24:20.788Z,17730.8457
2023-03-21T00:25:22.222Z,17726.2305
2023-03-21T00:26:23.673Z,17722.6914
2023-03-21T00:27:56.927Z,17718.8457
2023-03-21T00:28:26.549Z,17720.1543
2023-03-21T00:29:27.988Z,17718.0762
2023-03-21T00:30:29.432Z,17719.0762
2023-03-21T00:31:30.863Z,17715.4609
2023-03-21T00:32:35.593Z,17712.6914
2023-03-21T00:33:33.754Z,17716.9238
2023-03-21T00:34:43.205Z,17717.3848
2023-03-21T00:36:01.806Z,17717.1543
2023-03-21T00:36:38.256Z,17717.7695
2023-03-21T00:37:39.605Z,17718.5391
2023-03-21T00:38:41.041Z,17718.5391
2023-03-21T00:39:42.483Z,17717.2305
2023-03-21T00:40:49.169Z,17720.0000
2023-03-21T00:41:45.403Z,17720.0762
2023-03-21T00:42:46.796Z,17720.9238
2023-03-21T00:43:48.216Z,17723.4609
2023-03-21T00:44:49.671Z,17723.4609
2023-03-21T00:45:51.147Z,17722.5391
2023-03-21T00:47:06.193Z,17725.4609
2023-03-21T00:47:54.138Z,17725.3086
2023-03-21T00:48:55.496Z,17721.9238
2023-03-21T00:49:56.840Z,17724.2305
2023-03-21T00:50:58.314Z,17728.8457
2023-03-21T00:52:14.790Z,17723.5391
2023-03-21T00:53:01.164Z,17728.5391
2023-03-21T00:54:02.594Z,17726.8457
2023-03-21T00:55:04.047Z,17727.1543
2023-03-21T00:56:05.485Z,17733.2305
2023-03-21T00:57:06.919Z,17728.4609
2023-03-21T00:58:08.393Z,17730.1543
2023-03-21T00:59:09.805Z,17729.1543
2023-03-21T01:00:11.229Z,17728.3848
2023-03-21T01:01:12.704Z,17730.0762
2023-03-21T01:02:14.159Z,17731.6914
2023-03-21T01:03:24.506Z,17728.9238
2023-03-21T01:04:17.166Z,17730.6152
2023-03-21T01:05:18.442Z,17729.7695
2023-03-21T01:06:19.866Z,17731.3848
2023-03-21T01:07:21.318Z,17731.3086
2023-03-21T01:08:29.411Z,17729.9238
2023-03-21T01:09:24.214Z,17718.4609
2023-03-21T01:10:25.632Z,17711.5391
2023-03-21T01:11:27.084Z,17707.6152
2023-03-21T01:12:28.525Z,17713.5391
2023-03-21T01:13:29.956Z,17713.2305
2023-03-21T01:14:31.401Z,17713.4609
2023-03-21T01:15:32.834Z,17710.6152
2023-03-21T01:16:34.379Z,17710.8457
2023-03-21T01:17:35.731Z,17710.1543
2023-03-21T01:18:37.142Z,17712.5391
2023-03-21T01:19:51.301Z,17713.6914
2023-03-21T01:20:40.031Z,17713.5391
2023-03-21T01:21:41.491Z,17712.6152
2023-03-21T01:22:42.897Z,17710.6152
2023-03-21T01:23:44.349Z,17713.3086
2023-03-21T01:24:54.115Z,17717.3086
2023-03-21T01:25:47.223Z,17716.3086
2023-03-21T01:26:48.666Z,17715.0762
2023-03-21T01:27:50.108Z,17716.9238
2023-03-21T01:28:51.534Z,17718.8457
2023-03-21T01:29:52.991Z,17716.9238
2023-03-21T01:30:54.415Z,17718.3086
2023-03-21T01:31:55.953Z,17720.4609
2023-03-21T01:32:57.292Z,17719.3848
2023-03-21T01:33:58.734Z,17719.0000
2023-03-21T01:35:00.173Z,17721.1543
2023-03-21T01:36:12.160Z,17721.9238
2023-03-21T01:37:03.081Z,17721.6914
2023-03-21T01:38:04.496Z,17722.4609
2023-03-21T01:39:05.926Z,17723.9238
2023-03-21T01:40:07.370Z,17723.6914
2023-03-21T01:41:18.892Z,17724.0000
2023-03-21T01:42:10.249Z,17730.0000
2023-03-21T01:43:11.681Z,17728.9238
2023-03-21T01:44:13.123Z,17726.4609
2023-03-21T01:45:14.565Z,17728.3848
2023-03-21T01:46:16.040Z,17730.6152
2023-03-21T01:47:17.461Z,17728.2305
2023-03-21T01:48:18.902Z,17722.7695
2023-03-21T01:49:20.305Z,17719.3086
2023-03-21T01:50:21.749Z,17719.6914
2023-03-21T01:51:23.185Z,17725.1543
2023-03-21T01:52:37.195Z,17725.3086
2023-03-21T01:53:26.067Z,17726.3848
2023-03-21T01:54:27.505Z,17725.6152
2023-03-21T01:55:28.940Z,17728.0762
2023-03-21T01:56:30.397Z,17729.3848
2023-03-21T01:57:40.962Z,17731.0762
2023-03-21T01:58:33.330Z,17730.6914
2023-03-21T01:59:34.702Z,17729.9238
2023-03-21T02:00:36.138Z,17731.9238
2023-03-21T02:01:37.576Z,17733.1543
2023-03-21T02:02:39.019Z,17736.6914
2023-03-21T02:03:40.500Z,17733.3848
2023-03-21T02:04:41.900Z,17734.5391
2023-03-21T02:05:43.326Z,17732.1543
2023-03-21T02:06:44.782Z,17736.4609
2023-03-21T02:07:46.200Z,17739.2305
2023-03-21T02:08:47.649Z,17737.7695
2023-03-21T02:09:49.086Z,17742.4609
2023-03-21T02:10:50.696Z,17740.4609
2023-03-21T02:11:51.999Z,17739.8457
2023-03-21T02:12:53.407Z,17740.0762
2023-03-21T02:14:05.670Z,17741.8457
2023-03-21T02:14:56.283Z,17743.0762
2023-03-21T02:15:57.716Z,17745.1543
2023-03-21T02:16:59.219Z,17746.1543
2023-03-21T02:18:00.582Z,17745.4609
2023-03-21T02:19:02.038Z,17746.0000
2023-03-21T02:20:03.468Z,17746.6152
2023-03-21T02:21:04.899Z,17746.6914
2023-03-21T02:22:06.325Z,17750.0000
2023-03-21T02:23:07.773Z,17748.2305
2023-03-21T02:24:09.210Z,17750.8457
2023-03-21T02:25:21.269Z,17751.4609
2023-03-21T02:26:12.089Z,17753.8457
2023-03-21T02:27:13.528Z,17752.9238
2023-03-21T02:28:14.956Z,17753.3086
2023-03-21T02:29:17.736Z,17755.2305
2023-03-21T02:30:28.247Z,17756.3848
2023-03-21T02:31:19.317Z,17756.2305
2023-03-21T02:32:35.018Z,17757.7695
2023-03-21T02:33:22.150Z,17754.9238
2023-03-21T02:34:23.588Z,17756.0762
2023-03-21T02:35:25.025Z,17757.4609
2023-03-21T02:36:26.543Z,17760.7695
2023-03-21T02:37:36.753Z,17763.0762
2023-03-21T02:38:29.380Z,17760.6914
2023-03-21T02:39:30.792Z,17759.6914
2023-03-21T02:40:32.247Z,17758.6914
2023-03-21T02:41:40.133Z,17759.3086
2023-03-21T02:42:35.138Z,17760.9238
2023-03-21T02:43:36.543Z,17764.6152
2023-03-21T02:44:37.994Z,17763.1543
2023-03-21T02:45:39.424Z,17762.8457
2023-03-21T02:46:45.653Z,17762.3848
2023-03-21T02:47:42.333Z,17765.7695
2023-03-21T02:48:50.672Z,17766.1543
2023-03-21T02:49:45.193Z,17765.4609
2023-03-21T02:50:46.622Z,17766.3848
2023-03-21T02:51:48.105Z,17767.3848
2023-03-21T02:52:49.490Z,17769.0000
2023-03-21T02:54:04.574Z,17770.0762
2023-03-21T02:54:52.368Z,17773.9238
2023-03-21T02:55:53.807Z,17770.2305
2023-03-21T02:56:55.380Z,17776.0000
2023-03-21T02:57:56.870Z,17774.7695
2023-03-21T02:58:58.174Z,17774.1543
2023-03-21T03:00:07.524Z,17773.4609
2023-03-21T03:01:01.020Z,17775.7695
2023-03-21T03:02:02.459Z,17778.3848
2023-03-21T03:03:09.869Z,17776.3848
2023-03-21T03:04:05.345Z,17776.6914
2023-03-21T03:05:18.005Z,17774.3848
2023-03-21T03:06:08.225Z,17777.2305
2023-03-21T03:07:09.624Z,17779.8457
2023-03-21T03:08:11.105Z,17781.3848
2023-03-21T03:09:12.511Z,17781.1543
2023-03-21T03:10:13.943Z,17779.4609
2023-03-21T03:11:15.373Z,17782.3086
2023-03-21T03:12:16.827Z,17780.8457
2023-03-21T03:13:18.254Z,17784.8457
2023-03-21T03:15:21.128Z,17783.6152
2023-03-21T03:16:22.570Z,17783.0000
2023-03-21T03:17:24.013Z,17787.9238
2023-03-21T03:18:25.454Z,17787.3086
2023-03-21T03:19:26.885Z,17788.0762
2023-03-21T03:20:28.323Z,17790.1543
2023-03-21T03:21:29.755Z,17790.0000
2023-03-21T03:22:31.197Z,17790.7695
2023-03-21T03:23:32.631Z,17790.5391
2023-03-21T03:24:34.093Z,17790.9238
2023-03-21T03:25:42.605Z,17792.6152
2023-03-21T03:26:36.961Z,17793.3086
2023-03-21T03:27:38.380Z,17792.5391
2023-03-21T03:28:39.840Z,17798.0000
2023-03-21T03:29:41.263Z,17796.7695
2023-03-21T03:30:54.070Z,17795.2305
2023-03-21T03:31:44.206Z,17795.7695
2023-03-21T03:32:45.577Z,17794.3086
2023-03-21T03:33:47.009Z,17795.0000
2023-03-21T03:34:48.451Z,17792.2305
2023-03-21T03:36:02.568Z,17795.2305
2023-03-21T03:36:51.372Z,17793.8457
2023-03-21T03:37:52.746Z,17797.1543
2023-03-21T03:38:54.185Z,17798.6152
2023-03-21T03:39:55.617Z,17800.5391
2023-03-21T03:40:57.061Z,17799.0000
2023-03-21T03:42:27.199Z,17799.4609
2023-03-21T03:42:59.929Z,17798.4609
2023-03-21T03:44:01.363Z,17798.0762
2023-03-21T03:45:02.810Z,17801.3086
2023-03-21T03:46:04.234Z,17801.8457
2023-03-21T03:47:05.691Z,17801.0000
2023-03-21T03:48:07.155Z,17800.7695
2023-03-21T03:49:08.566Z,17803.5391
2023-03-21T03:50:09.983Z,17802.0000
2023-03-21T03:51:11.425Z,17805.5391
2023-03-21T03:52:12.867Z,17806.6914
2023-03-21T03:53:18.358Z,17807.6152
2023-03-21T03:54:15.726Z,17804.1543
2023-03-21T03:55:17.166Z,17806.6914
2023-03-21T03:56:18.597Z,17808.1543
2023-03-21T03:57:20.046Z,17807.6914
2023-03-21T03:58:24.252Z,17809.5391
2023-03-21T03:59:22.902Z,17810.1543
2023-03-21T04:00:24.329Z,17807.3086
2023-03-21T04:01:25.768Z,17809.0762
2023-03-21T04:02:27.289Z,17809.9238
2023-03-21T04:03:32.416Z,17810.0000
2023-03-21T04:04:30.147Z,17810.6152
2023-03-21T04:05:31.513Z,17812.6914
2023-03-21T04:06:32.944Z,17812.0000
2023-03-21T04:07:34.385Z,17815.8457
2023-03-21T04:08:35.854Z,17817.6914
2023-03-21T04:09:44.071Z,17816.6152
2023-03-21T04:10:39.099Z,17818.5391
2023-03-21T04:11:40.122Z,17817.8457
2023-03-21T04:12:41.572Z,17820.1543
2023-03-21T04:13:43.047Z,17822.2305
2023-03-21T04:14:46.976Z,17822.6914
2023-03-21T04:15:46.072Z,17821.3086
2023-03-21T04:16:47.307Z,17824.7695
2023-03-21T04:17:48.719Z,17825.7695
2023-03-21T04:18:50.170Z,17826.5391
2023-03-21T04:19:55.476Z,17828.0000
2023-03-21T04:20:53.031Z,17828.8457
2023-03-21T04:21:54.455Z,17829.5391
2023-03-21T04:22:55.893Z,17833.4609
2023-03-21T04:23:57.323Z,17833.9238
2023-03-21T04:25:00.517Z,17836.6152
2023-03-21T04:26:00.189Z,17835.2305
2023-03-21T04:27:01.642Z,17837.7695
2023-03-21T04:28:03.045Z,17841.4609
2023-03-21T04:29:04.484Z,17838.5391
2023-03-21T04:30:05.911Z,17839.0000
2023-03-21T04:31:16.098Z,17841.2305
2023-03-21T04:32:08.820Z,17841.0000
2023-03-21T04:33:10.218Z,17838.3086
2023-03-21T04:34:11.641Z,17840.0762
2023-03-21T04:35:13.088Z,17846.5391
2023-03-21T04:36:14.546Z,17847.9238
2023-03-21T04:37:15.957Z,17848.5391
2023-03-21T04:38:17.477Z,17849.1543
2023-03-21T04:39:18.918Z,17848.9238
2023-03-21T04:40:20.367Z,17844.0000
2023-03-21T04:41:21.801Z,17849.6152
2023-03-21T04:42:23.210Z,17847.6914
2023-03-21T04:43:24.656Z,17851.9238
2023-03-21T04:44:26.082Z,17848.3848
2023-03-21T04:45:27.527Z,17851.6914
2023-03-21T04:46:28.968Z,17848.9238
2023-03-21T04:47:30.396Z,17850.9238
2023-03-21T04:48:31.831Z,17851.3086
2023-03-21T04:49:33.287Z,17855.8457
2023-03-21T04:50:34.921Z,17853.0762
2023-03-21T04:51:36.140Z,17855.6152
2023-03-21T04:52:37.588Z,17857.6152
2023-03-21T04:53:39.019Z,17856.0000
2023-03-21T04:54:40.450Z,17854.0762
2023-03-21T04:55:41.885Z,17858.3086
2023-03-21T04:56:43.329Z,17857.1543
2023-03-21T04:57:44.772Z,17861.6914
2023-03-21T04:58:46.191Z,17857.6152
2023-03-21T04:59:47.640Z,17860.1543
2023-03-21T05:00:49.090Z,17863.6914
2023-03-21T05:01:50.498Z,17861.2305
2023-03-21T05:02:51.929Z,17862.0762
2023-03-21T05:03:53.382Z,17864.9238
2023-03-21T05:04:54.794Z,17863.9238
2023-03-21T05:05:56.241Z,17866.1543
2023-03-21T05:06:57.664Z,17868.5391
2023-03-21T05:07:59.106Z,17865.4609
2023-03-21T05:09:00.555Z,17865.4609
2023-03-21T05:10:02.776Z,17869.2305
2023-03-21T05:11:03.408Z,17876.1543
2023-03-21T05:12:04.864Z,17878.4609
2023-03-21T05:13:06.299Z,17884.8457
2023-03-21T05:14:07.725Z,17884.3848
2023-03-21T05:15:09.194Z,17887.3086
2023-03-21T05:16:10.604Z,17888.1543
2023-03-21T05:17:12.044Z,17888.0000
2023-03-21T05:18:13.463Z,17887.4609
2023-03-21T05:19:14.903Z,17890.0762
2023-03-21T05:20:16.380Z,17893.0000
2023-03-21T05:21:17.768Z,17892.6152
2023-03-21T05:22:19.213Z,17895.8457
2023-03-21T05:23:20.636Z,17897.9238
2023-03-21T05:24:22.079Z,17898.0000
2023-03-21T05:25:23.513Z,17898.6914
2023-03-21T05:26:24.956Z,17901.4609
2023-03-21T05:27:26.390Z,17901.6152
2023-03-21T05:28:27.825Z,17902.2305
2023-03-21T05:29:29.260Z,17906.0762
2023-03-21T05:30:30.705Z,17906.1543
2023-03-21T05:31:32.143Z,17906.4609
2023-03-21T05:32:33.575Z,17908.0762
2023-03-21T05:33:35.000Z,17909.4609
2023-03-21T05:34:36.442Z,17913.3848
2023-03-21T05:35:38.141Z,17911.4609
2023-03-21T05:36:39.349Z,17914.2305
2023-03-21T05:37:40.753Z,17913.7695
2023-03-21T05:38:42.192Z,17916.0000
2023-03-21T05:39:43.623Z,17920.3086
2023-03-21T05:40:45.061Z,17916.6152
2023-03-21T05:41:46.521Z,17917.0000
2023-03-21T05:42:47.927Z,17918.3848
2023-03-21T05:43:49.370Z,17923.6914
2023-03-21T05:44:50.794Z,17927.3848
2023-03-21T05:45:52.267Z,17930.7695
2023-03-21T05:46:53.683Z,18068.1543
2023-03-21T05:47:55.129Z,18931.6914
2023-03-21T05:48:56.541Z,19385.6914
2023-03-21T05:49:57.971Z,19558.0000
2023-03-21T05:50:59.436Z,19628.1543
2023-03-21T05:52:00.860Z,19361.5391
2023-03-21T05:53:02.314Z,18964.0762
2023-03-21T05:54:03.757Z,18853.3848
2023-03-21T05:55:05.174Z,18836.1543
2023-03-21T05:56:06.614Z,18832.3086
2023-03-21T05:57:08.062Z,18832.6152
2023-03-21T05:58:09.478Z,18832.0762
2023-03-21T05:59:10.919Z,18818.3086
2023-03-21T06:00:12.369Z,18804.8457
2023-03-21T06:01:13.791Z,18797.7695
2023-03-21T06:02:15.311Z,18773.5391
2023-03-21T06:03:16.663Z,18772.3086
2023-03-21T06:04:18.140Z,18783.6152
2023-03-21T06:05:19.531Z,18786.0762
2023-03-21T06:06:20.972Z,18790.3086
2023-03-21T06:07:22.406Z,18783.2305
2023-03-21T06:08:23.833Z,18772.3086
2023-03-21T06:09:25.274Z,18738.7695
2023-03-21T06:10:26.702Z,18719.0000
2023-03-21T06:11:28.166Z,18714.5391
2023-03-21T06:12:29.580Z,18714.9238
2023-03-21T06:13:31.018Z,18710.4609
2023-03-21T06:14:32.459Z,18717.9238
2023-03-21T06:15:33.880Z,18734.9238
2023-03-21T06:16:35.323Z,18757.3848
2023-03-21T06:17:36.754Z,18742.4609
2023-03-21T06:18:38.196Z,18736.3848
2023-03-21T06:19:39.630Z,18733.8457
2023-03-21T06:20:41.056Z,18744.0762
2023-03-21T06:21:42.520Z,18734.3848
2023-03-21T06:22:43.934Z,18732.3086
2023-03-21T06:23:45.376Z,18726.3848
2023-03-21T06:24:46.802Z,18743.0000
2023-03-21T06:25:48.253Z,18763.6152
2023-03-21T06:26:49.683Z,18781.3086
2023-03-21T06:27:51.119Z,18800.4609
2023-03-21T06:28:52.540Z,18818.3848
2023-03-21T06:29:53.987Z,18824.5391
2023-03-21T06:30:55.501Z,18807.4609
2023-03-21T06:31:56.867Z,18785.0762
2023-03-21T06:32:58.327Z,18778.2305
2023-03-21T06:33:59.733Z,18778.0000
2023-03-21T06:35:01.168Z,18782.2305
2023-03-21T06:36:02.621Z,18789.3848
2023-03-21T06:37:04.051Z,18797.0762
2023-03-21T06:38:05.516Z,18791.7695
2023-03-21T06:39:06.917Z,18793.2305
2023-03-21T06:40:08.364Z,18800.3848
2023-03-21T06:41:09.780Z,18804.6914
2023-03-21T06:42:11.233Z,18818.9238
2023-03-21T06:43:12.669Z,18827.9238
2023-03-21T06:44:14.144Z,18828.6152
2023-03-21T06:45:15.542Z,18853.6914
2023-03-21T06:46:17.005Z,18879.1543
2023-03-21T06:47:18.426Z,18879.3848
2023-03-21T06:48:19.954Z,18878.0762
2023-03-21T06:49:21.301Z,18852.4609
2023-03-21T06:50:22.732Z,18843.4609
2023-03-21T06:51:24.169Z,18843.3848
2023-03-21T06:52:25.607Z,18862.5391
2023-03-21T06:53:27.038Z,18865.0762
2023-03-21T06:54:28.475Z,18884.0762
2023-03-21T06:55:29.896Z,18906.2305
2023-03-21T06:56:31.337Z,18893.7695
2023-03-21T06:57:32.777Z,18882.3848
2023-03-21T06:58:34.224Z,18884.2305
2023-03-21T06:59:35.641Z,18895.3848
2023-03-21T07:00:37.121Z,18873.0762
2023-03-21T07:01:38.538Z,18857.1543
2023-03-21T07:02:40.040Z,18855.3848
2023-03-21T07:03:41.397Z,18846.8457
2023-03-21T07:04:42.836Z,18848.6152
2023-03-21T07:05:44.262Z,18850.0000
2023-03-21T07:06:45.729Z,18846.3848
2023-03-21T07:07:47.143Z,18848.1543
2023-03-21T07:08:48.585Z,18832.5391
2023-03-21T07:09:50.018Z,18821.0762
2023-03-21T07:10:51.451Z,18817.7695
2023-03-21T07:11:52.903Z,18820.2305
2023-03-21T07:12:54.339Z,18818.5391
2023-03-21T07:13:55.780Z,18822.1543
2023-03-21T07:14:57.210Z,18819.3848
2023-03-21T07:15:58.660Z,18817.3086
2023-03-21T07:17:00.185Z,18817.2305
2023-03-21T07:18:01.527Z,18817.0762
2023-03-21T07:19:02.974Z,18823.0000
2023-03-21T07:20:04.413Z,18821.9238
2023-03-21T07:21:05.856Z,18819.7695
2023-03-21T07:22:07.322Z,18818.1543
2023-03-21T07:23:08.741Z,18815.8457
2023-03-21T07:24:10.170Z,18815.0762
2023-03-21T07:25:11.687Z,18816.7695
2023-03-21T07:26:13.069Z,18813.0000
2023-03-21T07:27:14.508Z,18801.6914
2023-03-21T07:28:15.923Z,18796.7695
2023-03-21T07:29:17.387Z,18783.0000
2023-03-21T07:30:18.810Z,18786.3086
2023-03-21T07:31:20.277Z,18780.5391
2023-03-21T07:32:21.683Z,18774.3848
2023-03-21T07:33:23.157Z,18769.3848
2023-03-21T07:34:24.554Z,18762.0762
2023-03-21T07:35:26.021Z,18754.0762
2023-03-21T07:36:27.436Z,18747.8457
2023-03-21T07:37:28.906Z,18738.0762
2023-03-21T07:38:30.318Z,18740.0762
2023-03-21T07:39:31.761Z,18736.6152
2023-03-21T07:40:33.215Z,18726.1543
2023-03-21T07:41:34.641Z,18722.6152
2023-03-21T07:42:36.090Z,18717.3848
2023-03-21T07:43:39.211Z,18713.4609
2023-03-21T17:02:34.837Z,19113.0723
2023-03-21T17:03:36.294Z,19051.1543
2023-03-21T17:04:37.754Z,19079.1543
2023-03-21T17:05:39.145Z,19085.0000
2023-03-21T17:06:40.575Z,19069.7695
2023-03-21T17:07:42.005Z,19056.4609
2023-03-21T17:08:43.439Z,19038.6152
2023-03-21T17:09:44.880Z,19028.5391
2023-03-21T17:10:46.314Z,19019.4609
2023-03-21T17:11:47.739Z,19007.6914
2023-03-21T17:12:49.186Z,18988.3848
2023-03-21T17:13:50.601Z,18987.0000
2023-03-21T17:14:52.038Z,18975.5391
2023-03-21T17:15:53.524Z,18965.4609
2023-03-21T17:16:54.983Z,18946.2305
2023-03-21T17:17:56.341Z,18942.3086
2023-03-21T17:18:57.785Z,18925.0000
2023-03-21T17:19:59.244Z,18908.6152
2023-03-21T17:21:00.667Z,18905.3086
2023-03-21T17:22:02.082Z,18900.7695
2023-03-21T17:23:03.525Z,18899.2305
2023-03-21T17:24:04.964Z,18909.3086
2023-03-21T17:25:06.388Z,18915.0762
2023-03-21T17:26:07.821Z,18919.2305
2023-03-21T17:27:09.262Z,18918.1543
2023-03-21T17:28:10.701Z,18922.3086
2023-03-21T17:29:12.126Z,18919.6914
2023-03-21T17:30:13.626Z,18916.5391
2023-03-21T17:31:15.058Z,18916.3848
2023-03-21T17:32:16.431Z,18915.8457
2023-03-21T17:33:17.880Z,18918.6152
2023-03-21T17:34:19.288Z,18918.6914
2023-03-21T17:35:20.751Z,18922.3086
2023-03-21T17:36:22.142Z,18924.0000
2023-03-21T17:37:23.594Z,18915.5391
2023-03-21T17:38:25.009Z,18916.9238
2023-03-21T17:39:26.442Z,18916.1543
2023-03-21T17:40:27.873Z,18909.5391
2023-03-21T17:41:29.309Z,18911.8457
2023-03-21T17:42:30.737Z,18910.5391
2023-03-21T17:43:32.178Z,18910.3848
2023-03-21T17:44:33.590Z,18914.6152
2023-03-21T17:45:35.027Z,18910.2305
2023-03-21T17:46:36.513Z,18906.1543
2023-03-21T17:47:37.913Z,18906.1543
2023-03-21T17:48:39.333Z,18907.0000
2023-03-21T17:49:40.759Z,18907.0000
2023-03-21T17:50:42.185Z,18902.8457
2023-03-21T17:51:43.632Z,18901.9238
2023-03-21T17:52:45.058Z,18903.2305
2023-03-21T17:53:46.487Z,18900.6914
2023-03-21T17:54:47.951Z,18900.6914
2023-03-21T17:55:49.377Z,18899.7695
2023-03-21T17:56:50.801Z,18899.0000
2023-03-21T17:57:52.239Z,18900.2305
2023-03-21T17:58:53.665Z,18900.8457
2023-03-21T17:59:55.108Z,18901.5391
2023-03-21T18:00:56.546Z,18894.3086
2023-03-21T18:01:58.023Z,18895.1543
2023-03-21T18:02:59.490Z,18889.5391
2023-03-21T18:04:00.889Z,18889.5391
2023-03-21T18:05:02.396Z,18889.8457
2023-03-21T18:06:03.736Z,18889.0000
2023-03-21T18:07:06.919Z,18888.3086
2023-03-21T18:08:11.037Z,18889.3086
2023-03-21T18:09:08.024Z,18891.3848
2023-03-21T18:10:09.467Z,18889.1543
2023-03-21T18:11:10.899Z,18887.7695
2023-03-21T18:12:12.329Z,18888.7695
2023-03-21T18:13:13.763Z,18886.1543
2023-03-21T18:14:18.081Z,18884.3848
2023-03-21T18:15:18.917Z,18884.4609
2023-03-21T18:16:18.112Z,18885.1543
2023-03-21T18:17:19.478Z,18881.6152
2023-03-21T18:18:20.918Z,18882.0762
2023-03-21T18:19:22.344Z,18881.2305
2023-03-21T18:20:24.258Z,18881.1543
2023-03-21T18:21:26.296Z,18879.7695
2023-03-21T18:22:26.648Z,18876.0762
2023-03-21T18:23:28.079Z,18877.7695
2023-03-21T18:24:29.519Z,18874.9238
2023-03-21T18:25:30.934Z,18871.7695
2023-03-21T18:26:32.429Z,18872.2305
2023-03-21T18:27:35.301Z,18870.3086
2023-03-21T18:28:35.228Z,18873.2305
2023-03-21T18:31:00.286Z,18872.1543
2023-03-21T18:31:39.529Z,18870.0000
2023-03-21T18:32:41.015Z,18870.6152
2023-03-21T18:33:42.389Z,18867.3086
2023-03-21T18:34:43.831Z,18872.0762
2023-03-21T18:35:46.374Z,18871.0762
2023-03-21T18:36:49.141Z,18867.3086
2023-03-21T18:37:48.134Z,18869.0762
2023-03-21T18:38:49.538Z,18865.3086
2023-03-21T18:39:50.976Z,18864.4609
2023-03-21T18:40:52.395Z,18863.5391
2023-03-21T18:41:57.762Z,18865.2305
2023-03-21T18:44:05.438Z,18879.6152
2023-03-21T18:44:58.189Z,18879.7695
2023-03-21T18:45:59.571Z,18879.6914
2023-03-21T18:47:01.018Z,18878.8457
2023-03-21T18:48:02.463Z,18874.7695
2023-03-21T18:49:33.941Z,18880.4609
2023-03-21T18:50:14.125Z,18878.3086
2023-03-21T18:51:06.718Z,18875.3848
2023-03-21T18:52:08.175Z,18873.4609
2023-03-21T18:53:09.572Z,18873.1543
2023-03-21T18:54:11.013Z,18871.9238
2023-03-21T18:55:12.441Z,18872.0762
2023-03-21T18:56:40.797Z,18867.0762
2023-03-21T18:58:16.744Z,18868.2305
2023-03-21T18:59:18.171Z,18866.6152
2023-03-21T19:00:19.646Z,18872.7695
2023-03-21T19:01:21.165Z,18869.5391
2023-03-21T19:02:22.633Z,18870.7695
2023-03-21T19:03:35.893Z,18869.4609
2023-03-21T19:04:30.045Z,18867.4609
2023-03-21T19:05:26.836Z,18866.9238
2023-03-21T19:06:28.237Z,18867.7695
2023-03-21T19:07:29.644Z,18864.6152
2023-03-21T19:08:31.120Z,18865.8457
2023-03-21T19:09:32.499Z,18864.4609
2023-03-21T19:10:33.944Z,18862.5391
2023-03-21T19:11:35.395Z,18864.4609
2023-03-21T19:12:36.822Z,18861.3848
2023-03-21T19:13:38.224Z,18863.2305
2023-03-21T19:14:39.662Z,18860.3848
2023-03-21T19:15:41.525Z,18860.4609
2023-03-21T19:17:08.476Z,18858.5391
2023-03-21T19:18:54.519Z,18857.8457
2023-03-21T19:19:46.908Z,18857.3848
2023-03-21T19:20:48.264Z,18858.0000
2023-03-21T19:21:49.692Z,18858.0762
2023-03-21T19:22:51.141Z,18859.0762
2023-03-21T19:24:25.259Z,18857.6914
2023-03-21T19:24:54.003Z,18855.8457
2023-03-21T19:25:55.420Z,18855.6152
2023-03-21T19:26:56.858Z,18856.5391
2023-03-21T19:27:58.300Z,18856.0762
2023-03-21T19:28:59.729Z,18855.3086
2023-03-21T19:30:13.466Z,18854.3848
2023-03-21T19:31:02.590Z,18854.2305
2023-03-21T19:32:04.088Z,18852.2305
2023-03-21T19:33:05.472Z,18850.0762
2023-03-21T19:34:06.889Z,18850.0762
2023-03-21T19:35:08.366Z,18848.6152
2023-03-21T19:36:20.930Z,18846.2305
2023-03-21T19:37:11.240Z,18849.7695
2023-03-21T19:38:12.633Z,18843.1543
2023-03-21T19:39:14.072Z,18843.4609
2023-03-21T19:40:15.511Z,18844.0762
2023-03-21T19:41:16.959Z,18845.0000
2023-03-21T19:42:18.474Z,18844.2305
2023-03-21T19:43:32.270Z,18844.1543
2023-03-21T19:44:21.249Z,18839.4609
2023-03-21T19:45:22.679Z,18835.0762
2023-03-21T19:46:24.113Z,18837.0000
2023-03-21T19:47:25.562Z,18835.0000
2023-03-21T19:48:27.179Z,18832.1543
2023-03-21T19:49:48.535Z,18830.4609
2023-03-21T19:51:24.467Z,18827.4609
2023-03-21T19:51:31.582Z,18830.3086
2023-03-21T19:52:32.731Z,18826.3848
2023-03-21T19:53:34.163Z,18825.6914
2023-03-21T19:54:35.591Z,18825.3848
2023-03-21T19:55:37.030Z,18826.3086
2023-03-21T19:56:38.451Z,18818.8457
2023-03-21T19:57:39.939Z,18782.0762
2023-03-21T19:58:41.330Z,18740.6914
2023-03-21T19:59:42.775Z,18725.0000
2023-03-21T20:00:44.205Z,18725.5391
2023-03-21T20:01:45.998Z,18734.6152
2023-03-21T20:02:47.129Z,18740.3086
2023-03-21T20:03:48.573Z,18733.7695
2023-03-21T20:04:49.950Z,18701.9238
2023-03-21T20:05:51.461Z,18666.0000
2023-03-21T20:06:52.817Z,18645.3848
2023-03-21T20:07:54.265Z,18646.0000
2023-03-21T20:09:41.213Z,18652.2305
2023-03-21T20:09:57.576Z,18651.3086
2023-03-21T20:10:58.562Z,18640.8457
2023-03-21T20:12:00.012Z,18640.0762
2023-03-21T20:13:01.450Z,18585.8457
2023-03-21T20:14:02.898Z,18571.3086
2023-03-21T20:15:16.661Z,18624.2305
2023-03-21T20:16:05.791Z,18671.9238
2023-03-21T20:17:07.239Z,18703.0762
2023-03-21T20:18:08.632Z,18708.8457
2023-03-21T20:19:10.073Z,18712.7695
2023-03-21T20:20:11.508Z,18722.1543
2023-03-21T20:21:17.667Z,18737.3086
2023-03-21T20:22:24.515Z,18748.2305
2023-03-21T20:23:16.093Z,18757.2305
2023-03-21T20:24:17.240Z,18760.3848
2023-03-21T20:25:18.665Z,18768.9238
2023-03-21T20:26:20.098Z,18767.9238
2023-03-21T20:27:21.524Z,18777.0000
2023-03-21T20:28:27.128Z,18779.6914
2023-03-21T20:30:25.841Z,18760.1543
2023-03-21T20:31:27.391Z,18756.6152
2023-03-21T20:32:28.713Z,18755.8457
2023-03-21T20:33:30.146Z,18752.9238
2023-03-21T20:34:31.598Z,18756.3086
2023-03-21T20:36:23.681Z,18760.3086
2023-03-21T20:36:40.442Z,18763.6152
2023-03-21T20:37:35.954Z,18765.0762
2023-03-21T20:38:37.333Z,18769.0000
2023-03-21T20:39:38.753Z,18772.2305
2023-03-21T20:40:40.537Z,18768.3848
2023-03-21T20:41:41.629Z,18776.3848
2023-03-21T20:42:43.078Z,18772.9238
2023-03-21T20:44:57.940Z,18776.3848
2023-03-21T20:45:47.377Z,18779.7695
2023-03-21T20:46:48.902Z,18779.2305